Time;durP1;ratioP1;P1;durP2;ratioP2;P2;SDS_P1;SDS_P2;PMS_P1;PMS_P2;Temp;Humidity;BMP_temperature;BMP_pressure;BME280_temperature;BME280_humidity;BME280_pressure;Samples;Min_cycle;Max_cycle;Signal;HPM_P1;HPM_P2
2021/11/04 00:00:50;;;;;;;6.38;5.88;;;;;;;3.68;94.67;100561.72;4856979;29;20042;-82
2021/11/04 00:03:15;;;;;;;7.75;7.05;;;;;;;3.62;94.65;100556.63;4825726;29;20229;-82
2021/11/04 00:05:41;;;;;;;6.97;6.38;;;;;;;3.61;94.56;100563.56;4858487;29;20030;-83
2021/11/04 00:08:06;;;;;;;6.63;6.03;;;;;;;3.60;94.44;100566.16;4856712;29;20056;-82
2021/11/04 00:10:32;;;;;;;7.28;6.60;;;;;;;3.58;94.36;100567.94;4856198;29;20060;-82
2021/11/04 00:12:58;;;;;;;7.18;6.47;;;;;;;3.53;94.22;100569.72;4841062;29;20102;-81
2021/11/04 00:15:23;;;;;;;7.43;6.72;;;;;;;3.51;94.22;100569.78;4859226;29;20048;-81
2021/11/04 00:17:49;;;;;;;7.22;6.60;;;;;;;3.49;94.06;100565.50;4843479;29;20045;-82
2021/11/04 00:20:15;;;;;;;6.65;5.97;;;;;;;3.46;94.07;100569.00;4813162;29;20041;-82
2021/11/04 00:22:40;;;;;;;5.88;5.38;;;;;;;3.41;93.98;100566.47;4849197;29;20352;-83
2021/11/04 00:25:06;;;;;;;6.70;6.13;;;;;;;3.40;93.90;100558.72;4861436;29;20399;-83
2021/11/04 00:27:31;;;;;;;6.82;5.32;;;;;;;3.40;94.13;100571.66;4812448;29;20150;-83
2021/11/04 00:29:57;;;;;;;6.82;6.13;;;;;;;3.38;94.22;100566.50;4861323;29;20037;-83
2021/11/04 00:32:22;;;;;;;6.50;5.78;;;;;;;3.33;94.07;100570.91;4843552;29;20338;-83
2021/11/04 00:34:47;;;;;;;6.30;5.80;;;;;;;3.32;94.20;100576.09;4829067;29;20038;-83
2021/11/04 00:37:13;;;;;;;6.10;5.60;;;;;;;3.29;94.25;100568.38;4858692;29;20042;-83
2021/11/04 00:39:38;;;;;;;7.70;6.88;;;;;;;3.28;94.33;100571.88;4840195;29;20041;-82
2021/11/04 00:42:04;;;;;;;6.80;5.90;;;;;;;3.24;94.11;100566.72;4838800;29;20052;-83
2021/11/04 00:44:29;;;;;;;8.90;6.80;;;;;;;3.24;94.15;100566.72;4839403;29;20086;-83
2021/11/04 00:46:55;;;;;;;6.93;6.25;;;;;;;3.23;94.24;100562.41;4865357;29;20044;-82
2021/11/04 00:49:20;;;;;;;7.00;6.40;;;;;;;3.25;94.16;100565.84;4865147;29;20045;-83
2021/11/04 00:51:46;;;;;;;7.00;6.38;;;;;;;3.28;94.57;100566.69;4865681;29;20238;-83
2021/11/04 00:54:11;;;;;;;7.60;6.93;;;;;;;3.30;94.69;100565.78;4866392;29;20191;-83
2021/11/04 00:56:37;;;;;;;10.27;7.55;;;;;;;3.30;94.50;100558.00;4848720;29;20065;-82
2021/11/04 00:59:02;;;;;;;9.88;7.15;;;;;;;3.31;94.61;100556.28;4848676;29;20039;-83
2021/11/04 01:01:28;;;;;;;7.72;7.03;;;;;;;3.30;94.52;100562.34;4863663;29;20240;-82
2021/11/04 01:03:53;;;;;;;8.40;7.57;;;;;;;3.28;94.62;100556.34;4849223;29;20037;-83
2021/11/04 01:06:20;;;;;;;8.35;7.50;;;;;;;3.26;94.57;100556.34;4833451;29;20049;-83
2021/11/04 01:08:46;;;;;;;8.20;7.38;;;;;;;3.23;94.40;100551.22;4866245;29;20037;-83
2021/11/04 01:11:11;;;;;;;8.00;7.20;;;;;;;3.21;94.27;100552.97;4818353;29;20108;-83
2021/11/04 01:13:37;;;;;;;8.18;7.30;;;;;;;3.18;94.20;100548.69;4847391;29;20049;-83
2021/11/04 01:16:03;;;;;;;7.13;6.40;;;;;;;3.16;94.48;100547.00;4833766;29;20056;-82
2021/11/04 01:18:28;;;;;;;6.60;6.00;;;;;;;3.13;94.14;100545.34;4848763;29;20052;-82
2021/11/04 01:20:53;;;;;;;6.50;5.90;;;;;;;3.12;94.28;100542.75;4848780;29;20069;-83
2021/11/04 01:23:19;;;;;;;6.63;6.03;;;;;;;3.08;94.42;100549.72;4864750;29;20341;-83
2021/11/04 01:25:44;;;;;;;6.43;5.93;;;;;;;3.04;94.41;100541.13;4852849;29;20085;-82
2021/11/04 01:28:10;;;;;;;6.95;5.88;;;;;;;3.01;94.16;100541.19;4869094;29;20255;-83
2021/11/04 01:30:36;;;;;;;5.78;5.38;;;;;;;2.97;94.06;100543.84;4836010;29;20060;-82
2021/11/04 01:33:02;;;;;;;6.18;5.68;;;;;;;2.95;94.07;100541.28;4837247;29;20060;-82
2021/11/04 01:35:30;;;;;;;7.15;6.55;;;;;;;2.93;94.08;100540.44;4852005;29;20052;-82
2021/11/04 01:37:56;;;;;;;6.57;6.07;;;;;;;2.89;93.79;100543.91;4852609;29;20041;-83
2021/11/04 01:40:22;;;;;;;6.18;5.57;;;;;;;2.85;93.95;100537.94;4836800;29;20040;-83
2021/11/04 01:42:47;;;;;;;6.95;6.35;;;;;;;2.85;93.90;100542.25;4869032;29;20220;-83
2021/11/04 01:45:13;;;;;;;7.07;6.45;;;;;;;2.81;94.10;100544.03;4850826;29;20045;-82
2021/11/04 01:47:40;;;;;;;6.75;6.15;;;;;;;2.80;94.00;100538.88;4852124;29;20128;-83
2021/11/04 01:50:06;;;;;;;6.78;6.18;;;;;;;2.80;93.99;100544.06;4837465;29;20376;-82
2021/11/04 01:52:32;;;;;;;6.53;6.03;;;;;;;2.78;93.81;100538.06;4821397;29;20048;-82
2021/11/04 01:54:57;;;;;;;7.15;6.55;;;;;;;2.76;94.00;100544.97;4837162;29;20057;-82
2021/11/04 01:57:23;;;;;;;7.15;6.45;;;;;;;2.73;93.97;100551.06;4851602;29;20329;-82
2021/11/04 01:59:48;;;;;;;6.70;6.00;;;;;;;2.73;94.08;100547.59;4850862;29;20432;-83
2021/11/04 02:04:52;;;;;;;7.63;6.70;;;;;;;2.69;93.97;100539.91;4860309;29;20056;-82
2021/11/04 02:07:29;;;;;;;7.45;6.80;;;;;;;2.65;93.87;100540.78;4824084;29;20033;-83
2021/11/04 02:10:01;;;;;;;7.05;6.45;;;;;;;2.61;93.84;100536.53;4851700;29;20064;-82
2021/11/04 02:12:34;;;;;;;6.82;6.22;;;;;;;2.60;93.75;100539.13;4836705;29;20076;-83
2021/11/04 02:14:59;;;;;;;6.65;6.03;;;;;;;2.57;93.66;100532.28;4851274;29;20045;-83
2021/11/04 02:17:25;;;;;;;6.70;6.10;;;;;;;2.56;93.47;100530.56;4851604;29;20244;-82
2021/11/04 02:19:52;;;;;;;5.80;5.40;;;;;;;2.53;93.74;100530.63;4836694;29;20037;-82
2021/11/04 02:22:26;;;;;;;6.35;5.85;;;;;;;2.51;93.62;100537.56;4833327;29;20321;-82
2021/11/04 02:25:09;;;;;;;6.38;5.88;;;;;;;2.48;93.63;100530.66;4865122;29;20072;-83
2021/11/04 02:27:36;;;;;;;5.97;5.55;;;;;;;2.45;93.73;100533.28;4835951;29;20045;-82
2021/11/04 02:30:01;;;;;;;5.72;5.32;;;;;;;2.45;93.74;100532.44;4851060;29;20041;-83
2021/11/04 02:32:27;;;;;;;6.22;5.80;;;;;;;2.45;93.83;100535.03;4867844;29;20210;-82
2021/11/04 02:34:52;;;;;;;6.30;5.82;;;;;;;2.45;93.78;100529.84;4851347;29;20057;-82
2021/11/04 02:37:17;;;;;;;6.07;5.57;;;;;;;2.42;93.60;100527.28;4835407;29;20034;-82
2021/11/04 02:39:43;;;;;;;5.80;5.40;;;;;;;2.40;93.65;100529.91;4851350;29;20029;-83
2021/11/04 02:42:08;;;;;;;5.55;5.15;;;;;;;2.38;93.56;100530.78;4851084;29;20071;-82
2021/11/04 02:44:35;;;;;;;5.78;5.28;;;;;;;2.35;93.57;100534.28;4826612;29;20061;-82
2021/11/04 02:47:01;;;;;;;6.38;5.78;;;;;;;2.33;93.68;100535.16;4851561;29;20105;-82
2021/11/04 02:49:26;;;;;;;5.80;5.40;;;;;;;2.32;93.60;100525.72;4851189;29;20037;-82
2021/11/04 02:51:52;;;;;;;5.32;4.93;;;;;;;2.30;93.71;100534.31;4851403;29;20400;-82
2021/11/04 02:54:18;;;;;;;5.07;4.68;;;;;;;2.28;93.94;100523.16;4851288;29;20053;-82
2021/11/04 02:56:49;;;;;;;5.95;5.35;;;;;;;2.28;93.89;100527.47;4851389;29;20345;-82
2021/11/04 02:59:15;;;;;;;5.43;5.10;;;;;;;2.26;93.83;100518.88;4835255;29;20060;-82
2021/11/04 03:01:44;;;;;;;5.55;5.15;;;;;;;2.22;93.81;100523.22;4835699;29;20048;-82
2021/11/04 03:04:10;;;;;;;5.82;5.43;;;;;;;2.20;93.65;100522.41;4850338;29;20045;-82
2021/11/04 03:06:36;;;;;;;5.75;5.25;;;;;;;2.17;93.66;100524.16;4851107;29;20076;-82
2021/11/04 03:09:02;;;;;;;5.60;5.20;;;;;;;2.15;93.44;100536.22;4850549;29;20120;-82
2021/11/04 03:11:27;;;;;;;5.55;5.10;;;;;;;2.13;93.51;100536.25;4851102;29;20041;-82
2021/11/04 03:13:53;;;;;;;6.03;5.53;;;;;;;2.14;93.75;100544.84;4849431;29;20061;-82
2021/11/04 03:16:18;;;;;;;6.05;5.47;;;;;;;2.15;93.95;100546.53;4850495;29;20041;-83
2021/11/04 03:18:44;;;;;;;6.25;5.63;;;;;;;2.13;94.00;100541.44;4820481;29;20344;-82
2021/11/04 03:21:09;;;;;;;7.88;5.80;;;;;;;2.15;93.97;100554.31;4820701;29;20033;-82
2021/11/04 03:23:35;;;;;;;6.13;5.50;;;;;;;2.17;93.94;100557.75;4835071;29;20248;-82
2021/11/04 03:26:00;;;;;;;5.70;5.20;;;;;;;2.16;93.85;100548.28;4850736;29;20057;-82
2021/11/04 03:28:26;;;;;;;6.53;5.93;;;;;;;2.14;93.72;100556.03;4850473;29;20375;-82
2021/11/04 03:30:51;;;;;;;6.35;5.75;;;;;;;2.16;94.03;100554.28;4849344;29;20240;-82
2021/11/04 03:33:17;;;;;;;7.30;5.53;;;;;;;2.16;94.10;100554.28;4850276;29;20045;-82
2021/11/04 03:35:42;;;;;;;6.97;6.40;;;;;;;2.18;94.17;100551.69;4835049;29;20121;-82
2021/11/04 03:38:10;;;;;;;8.10;6.38;;;;;;;2.19;94.37;100550.84;4850264;29;20364;-83
2021/11/04 03:40:35;;;;;;;6.93;6.32;;;;;;;2.17;94.25;100552.59;4817824;29;20352;-83
2021/11/04 03:43:01;;;;;;;7.72;6.40;;;;;;;2.18;94.14;100557.72;4827375;29;20068;-83
2021/11/04 03:45:26;;;;;;;6.70;6.13;;;;;;;2.20;94.31;100562.88;4851281;29;20133;-84
2021/11/04 03:47:52;;;;;;;7.22;6.53;;;;;;;2.21;94.29;100562.00;4836862;29;20045;-83
2021/11/04 03:50:18;;;;;;;7.10;6.50;;;;;;;2.22;94.29;100561.13;4821539;29;20033;-83
2021/11/04 03:52:43;;;;;;;7.93;7.13;;;;;;;2.22;94.41;100561.13;4836810;29;20237;-81
2021/11/04 03:55:10;;;;;;;12.80;7.88;;;;;;;2.24;94.54;100568.00;4866694;29;20045;-82
2021/11/04 03:57:38;;;;;;;13.77;8.40;;;;;;;2.27;94.61;100573.16;4832725;29;20100;-81
2021/11/04 04:00:08;;;;;;;8.45;7.55;;;;;;;2.31;94.70;100571.38;4836153;29;20039;-82
2021/11/04 04:02:33;;;;;;;8.68;7.78;;;;;;;2.32;94.75;100567.91;4850930;29;20044;-81
2021/11/04 04:04:59;;;;;;;9.32;8.27;;;;;;;2.37;94.94;100573.03;4835925;29;20086;-81
2021/11/04 04:07:28;;;;;;;10.02;8.70;;;;;;;2.42;94.85;100568.66;4851182;29;20042;-81
2021/11/04 04:09:54;;;;;;;8.57;7.70;;;;;;;2.47;95.04;100569.47;4867649;29;20053;-81
2021/11/04 04:12:19;;;;;;;10.15;7.40;;;;;;;2.52;95.21;100565.09;4850764;29;20049;-81
2021/11/04 04:14:45;;;;;;;12.55;8.63;;;;;;;2.55;95.22;100575.41;4865781;29;20324;-81
2021/11/04 04:17:10;;;;;;;9.48;8.50;;;;;;;2.59;95.19;100574.50;4867324;29;20041;-81
2021/11/04 04:19:36;;;;;;;8.05;7.07;;;;;;;2.62;95.26;100578.75;4867124;29;20056;-81
2021/11/04 04:22:02;;;;;;;10.55;7.68;;;;;;;2.66;95.29;100580.44;4850578;29;20037;-81
2021/11/04 04:24:27;;;;;;;9.75;8.32;;;;;;;2.68;95.52;100581.28;4835100;29;20045;-81
2021/11/04 04:26:53;;;;;;;8.82;7.60;;;;;;;2.69;95.67;100585.56;4867482;29;20057;-81
2021/11/04 04:29:18;;;;;;;10.13;8.43;;;;;;;2.72;95.72;100580.38;4866159;29;20033;-81
2021/11/04 04:31:44;;;;;;;8.70;7.90;;;;;;;2.75;95.96;100580.34;4866498;29;20062;-81
2021/11/04 04:34:10;;;;;;;9.88;8.63;;;;;;;2.75;95.96;100569.13;4866505;29;20103;-81
2021/11/04 04:36:35;;;;;;;12.35;8.80;;;;;;;2.76;95.72;100571.69;4819668;29;20364;-81
2021/11/04 04:39:01;;;;;;;9.15;8.25;;;;;;;2.77;95.87;100575.16;4850290;29;20045;-81
2021/11/04 04:41:26;;;;;;;10.00;8.68;;;;;;;2.75;95.78;100579.47;4835420;29;20060;-81
2021/11/04 04:43:52;;;;;;;9.05;8.23;;;;;;;2.74;95.88;100583.78;4849570;29;20051;-81
2021/11/04 04:46:18;;;;;;;8.43;7.45;;;;;;;2.73;95.71;100591.56;4835676;29;20070;-81
2021/11/04 04:48:43;;;;;;;8.52;7.63;;;;;;;2.73;95.80;100588.97;4850755;29;20317;-81
2021/11/04 04:51:09;;;;;;;8.75;7.95;;;;;;;2.72;95.74;100587.28;4866621;29;20056;-81
2021/11/04 04:53:34;;;;;;;11.38;8.68;;;;;;;2.71;95.83;100590.72;4867000;29;20405;-81
2021/11/04 04:55:59;;;;;;;13.23;8.95;;;;;;;2.71;95.85;100591.59;4850578;29;20073;-81
2021/11/04 04:58:25;;;;;;;9.73;8.82;;;;;;;2.73;95.77;100600.19;4849344;29;20329;-81
2021/11/04 05:00:50;;;;;;;8.90;8.00;;;;;;;2.74;95.70;100596.72;4865522;29;20224;-81
2021/11/04 05:03:16;;;;;;;9.77;8.88;;;;;;;2.77;95.82;100588.09;4850410;29;20372;-81
2021/11/04 05:05:42;;;;;;;11.88;9.15;;;;;;;2.79;95.93;100596.66;4849569;29;20038;-82
2021/11/04 05:08:07;;;;;;;9.98;8.98;;;;;;;2.81;95.94;100603.53;4835127;29;20033;-81
2021/11/04 05:10:33;;;;;;;11.57;9.75;;;;;;;2.84;95.96;100603.50;4849686;29;20236;-81
2021/11/04 05:12:58;;;;;;;10.48;9.38;;;;;;;2.84;96.03;100611.25;4850037;29;20061;-81
2021/11/04 05:15:24;;;;;;;12.50;9.63;;;;;;;2.86;96.11;100606.91;4864903;29;20525;-81
2021/11/04 05:17:49;;;;;;;11.50;9.13;;;;;;;2.90;96.17;100610.31;4850678;29;20356;-82
2021/11/04 05:20:15;;;;;;;11.88;9.75;;;;;;;2.92;96.29;100611.16;4849611;29;20037;-82
2021/11/04 05:22:41;;;;;;;10.18;9.13;;;;;;;2.94;96.27;100601.63;4835311;29;20285;-82
2021/11/04 05:25:06;;;;;;;11.45;8.85;;;;;;;2.97;96.13;100603.34;4849775;29;20113;-81
2021/11/04 05:27:32;;;;;;;11.98;9.02;;;;;;;2.99;96.38;100593.81;4849596;29;20214;-81
2021/11/04 05:29:58;;;;;;;10.32;9.23;;;;;;;3.03;96.44;100596.34;4848305;29;20053;-81
2021/11/04 05:32:23;;;;;;;10.07;9.07;;;;;;;3.06;96.53;100605.81;4819538;29;20037;-81
2021/11/04 05:34:48;;;;;;;10.93;9.70;;;;;;;3.07;96.43;100605.78;4866660;29;20065;-81
2021/11/04 05:37:14;;;;;;;12.10;9.82;;;;;;;3.12;96.81;100610.03;4834639;29;20045;-82
2021/11/04 05:39:39;;;;;;;12.02;9.82;;;;;;;3.16;96.85;100611.69;4831625;29;20033;-81
2021/11/04 05:42:05;;;;;;;14.38;10.13;;;;;;;3.22;96.88;100612.47;4849662;29;20037;-81
2021/11/04 05:44:31;;;;;;;14.50;10.90;;;;;;;3.27;97.03;100615.00;4847511;29;20279;-81
2021/11/04 05:46:56;;;;;;;14.52;10.35;;;;;;;3.33;97.08;100645.97;4866776;29;20367;-81
2021/11/04 05:49:22;;;;;;;14.93;11.20;;;;;;;3.41;96.89;100635.50;4834835;29;20053;-81
2021/11/04 05:51:47;;;;;;;11.57;9.45;;;;;;;3.50;97.28;100632.78;4866498;29;20037;-81
2021/11/04 05:54:13;;;;;;;12.55;9.48;;;;;;;3.64;97.37;100637.78;4866496;29;20041;-81
2021/11/04 05:56:38;;;;;;;12.80;9.55;;;;;;;3.74;97.56;100639.31;4849504;29;20336;-81
2021/11/04 05:59:04;;;;;;;11.45;9.52;;;;;;;3.82;97.71;100632.28;4832987;29;20107;-83
2021/11/04 06:01:29;;;;;;;10.88;9.45;;;;;;;3.90;98.08;100637.34;4864849;29;20112;-82
2021/11/04 06:03:54;;;;;;;10.60;9.50;;;;;;;3.97;98.11;100633.78;4866429;29;20404;-81
2021/11/04 06:06:20;;;;;;;14.23;9.07;;;;;;;4.04;98.09;100630.19;4849346;29;20037;-81
2021/11/04 06:08:45;;;;;;;10.32;8.45;;;;;;;4.12;98.34;100626.63;4849484;29;20054;-81
2021/11/04 06:11:11;;;;;;;10.82;8.10;;;;;;;4.19;98.57;100620.44;4836479;29;20128;-81
2021/11/04 06:13:36;;;;;;;10.93;8.82;;;;;;;4.26;98.54;100632.41;4820901;29;20108;-80
2021/11/04 06:16:02;;;;;;;10.32;7.75;;;;;;;4.31;98.64;100628.00;4869166;29;20060;-82
2021/11/04 06:18:27;;;;;;;10.43;7.55;;;;;;;4.36;98.66;100630.50;4852725;29;20349;-81
2021/11/04 06:20:53;;;;;;;8.73;7.78;;;;;;;4.37;98.79;100627.88;4852817;29;20050;-82
2021/11/04 06:23:18;;;;;;;10.15;7.20;;;;;;;4.39;98.86;100625.28;4869114;29;20049;-81
2021/11/04 06:25:44;;;;;;;8.80;6.95;;;;;;;4.45;98.93;100617.38;4869032;29;20037;-81
2021/11/04 06:28:09;;;;;;;10.27;7.20;;;;;;;4.48;98.94;100621.66;4869036;29;20228;-81
2021/11/04 06:30:34;;;;;;;9.57;6.95;;;;;;;4.51;99.00;100629.34;4842356;29;20119;-81
2021/11/04 06:33:00;;;;;;;12.65;7.15;;;;;;;4.50;98.97;100630.25;4851489;29;20097;-81
2021/11/04 06:35:26;;;;;;;8.27;6.88;;;;;;;4.50;99.10;100638.88;4868339;29;20297;-81
2021/11/04 06:37:51;;;;;;;7.40;6.70;;;;;;;4.53;99.09;100632.78;4834493;29;20049;-81
2021/11/04 06:40:17;;;;;;;9.48;7.25;;;;;;;4.54;99.03;100645.72;4828876;29;20378;-81
2021/11/04 06:42:43;;;;;;;7.97;6.30;;;;;;;4.55;99.23;100644.84;4827033;29;20280;-81
2021/11/04 06:45:08;;;;;;;10.77;8.18;;;;;;;4.55;99.15;100644.84;4841121;29;20214;-81
2021/11/04 06:47:50;;;;;;;8.88;7.22;;;;;;;4.56;99.18;100646.53;4828555;29;20051;-81
2021/11/04 06:50:16;;;;;;;7.72;7.03;;;;;;;4.56;99.16;100649.13;4828749;29;20050;-81
2021/11/04 06:52:59;;;;;;;7.68;6.72;;;;;;;4.55;99.03;100657.81;4839444;29;20038;-81
2021/11/04 06:55:26;;;;;;;12.43;7.25;;;;;;;4.56;99.00;100671.63;4848492;29;20038;-82
2021/11/04 06:57:52;;;;;;;12.45;7.13;;;;;;;4.57;99.00;100662.97;4811537;29;20029;-81
2021/11/04 07:00:18;;;;;;;12.50;7.50;;;;;;;4.60;99.23;100679.34;4825283;29;20240;-81
2021/11/04 07:02:43;;;;;;;12.57;7.40;;;;;;;4.65;99.04;100681.84;4858152;29;20049;-81
2021/11/04 07:05:12;;;;;;;14.50;7.32;;;;;;;4.69;99.23;100693.00;4823425;29;20068;-81
2021/11/04 07:08:19;;;;;;;9.77;7.35;;;;;;;4.72;99.22;100692.97;4839090;29;20356;-81
2021/11/04 07:10:28;;;;;;;9.63;7.07;;;;;;;4.76;99.35;100692.00;4847138;29;20365;-81
2021/11/04 07:12:54;;;;;;;14.65;7.82;;;;;;;4.80;99.49;100691.94;4843662;29;20116;-81
2021/11/04 07:15:20;;;;;;;9.82;7.00;;;;;;;4.84;99.61;100689.25;4827166;29;20025;-82
2021/11/04 07:17:46;;;;;;;11.30;7.43;;;;;;;4.87;99.54;100689.22;4839763;29;20066;-81
2021/11/04 07:20:12;;;;;;;12.77;7.10;;;;;;;4.90;99.60;100684.81;4857743;29;20116;-81
2021/11/04 07:22:39;;;;;;;11.23;7.35;;;;;;;4.94;99.66;100685.63;4847306;29;20206;-81
2021/11/04 07:25:12;;;;;;;12.65;7.07;;;;;;;4.97;99.70;100683.81;4837922;29;20085;-81
2021/11/04 07:27:59;;;;;;;15.85;8.07;;;;;;;5.00;99.70;100693.25;4849427;29;20041;-81
2021/11/04 07:30:29;;;;;;;10.73;7.00;;;;;;;5.03;99.84;100694.97;4847774;29;20389;-81
2021/11/04 07:32:58;;;;;;;9.18;6.80;;;;;;;5.07;99.78;100701.78;4845342;29;20041;-81
2021/11/04 07:35:32;;;;;;;8.52;6.88;;;;;;;5.10;99.82;100694.81;4829256;29;20072;-81
2021/11/04 07:37:58;;;;;;;8.10;6.85;;;;;;;5.13;99.70;100699.06;4833472;29;20073;-81
2021/11/04 07:40:25;;;;;;;11.07;6.93;;;;;;;5.18;100.00;100695.50;4854304;29;20064;-81
2021/11/04 07:42:50;;;;;;;21.55;6.85;;;;;;;5.21;100.00;100691.16;4834451;29;20049;-82
2021/11/04 07:45:16;;;;;;;11.52;7.07;;;;;;;5.25;100.00;100697.97;4831913;29;20045;-81
2021/11/04 07:47:43;;;;;;;11.88;6.82;;;;;;;5.28;99.99;100695.31;4865457;29;20325;-81
2021/11/04 07:50:09;;;;;;;11.85;6.95;;;;;;;5.31;100.00;100700.44;4831327;29;20045;-81
2021/11/04 07:52:36;;;;;;;10.95;5.88;;;;;;;5.34;100.00;100692.59;4815233;29;20225;-81
2021/11/04 07:55:02;;;;;;;15.85;6.22;;;;;;;5.39;100.00;100698.53;4829699;29;20183;-81
2021/11/04 07:57:28;;;;;;;12.35;6.45;;;;;;;5.42;100.00;100698.47;4862679;29;20029;-81
2021/11/04 07:59:53;;;;;;;8.65;6.18;;;;;;;5.47;100.00;100699.22;4833488;29;20041;-81
2021/11/04 08:02:18;;;;;;;5.55;5.05;;;;;;;5.53;100.00;100699.09;4837956;29;20041;-81
2021/11/04 08:04:44;;;;;;;6.32;5.25;;;;;;;5.63;100.00;100699.72;4848852;29;20051;-81
2021/11/04 08:07:09;;;;;;;8.65;4.68;;;;;;;5.71;100.00;100702.16;4843593;29;20317;-81
2021/11/04 08:09:35;;;;;;;9.02;5.15;;;;;;;5.79;100.00;100692.44;4845976;29;20049;-82
2021/11/04 08:12:00;;;;;;;9.30;5.03;;;;;;;5.88;100.00;100697.44;4831309;29;20056;-81
2021/11/04 08:14:26;;;;;;;9.48;3.85;;;;;;;5.94;100.00;100694.69;4839445;29;20041;-81
2021/11/04 08:16:51;;;;;;;4.13;3.42;;;;;;;6.02;100.00;100691.06;4858879;29;20030;-81
2021/11/04 08:19:17;;;;;;;10.98;3.75;;;;;;;6.06;100.00;100693.56;4848927;29;20061;-81
2021/11/04 08:21:43;;;;;;;3.75;3.35;;;;;;;6.08;100.00;100684.00;4866887;29;20074;-81
2021/11/04 08:24:08;;;;;;;7.50;3.28;;;;;;;6.10;100.00;100690.00;4848073;29;20049;-81
2021/11/04 08:26:34;;;;;;;6.07;3.03;;;;;;;6.12;100.00;100690.81;4864485;29;20280;-81
2021/11/04 08:29:01;;;;;;;3.30;2.95;;;;;;;6.15;100.00;100695.94;4847150;29;20059;-82
2021/11/04 08:31:27;;;;;;;6.82;3.00;;;;;;;6.20;100.00;100694.97;4841949;29;20113;-81
2021/11/04 08:33:53;;;;;;;6.07;2.85;;;;;;;6.24;100.00;100694.88;4848515;29;20034;-81
2021/11/04 08:36:18;;;;;;;9.07;2.25;;;;;;;6.29;100.00;100689.53;4863031;29;20049;-82
2021/11/04 08:38:44;;;;;;;4.80;2.40;;;;;;;6.33;100.00;100697.25;4864667;29;20057;-81
2021/11/04 08:41:09;;;;;;;4.07;2.55;;;;;;;6.40;100.00;100689.28;4849661;29;20045;-82
2021/11/04 08:43:35;;;;;;;4.70;2.10;;;;;;;6.45;100.00;100701.25;4847793;29;20251;-82
2021/11/04 08:46:00;;;;;;;3.67;2.00;;;;;;;6.51;100.00;100697.63;4863124;29;20105;-81
2021/11/04 08:48:25;;;;;;;3.80;1.92;;;;;;;6.58;100.00;100704.41;4864339;29;20036;-82
2021/11/04 08:50:51;;;;;;;4.32;2.13;;;;;;;6.65;100.00;100703.34;4873281;29;20045;-81
2021/11/04 08:53:17;;;;;;;8.38;2.22;;;;;;;6.70;100.00;100698.88;4831570;29;20626;-82
2021/11/04 08:55:43;;;;;;;6.60;1.88;;;;;;;6.78;100.00;100697.81;4844136;29;20064;-82
2021/11/04 08:58:09;;;;;;;2.33;1.63;;;;;;;6.83;100.00;100707.19;4847643;29;20344;-83
2021/11/04 09:00:34;;;;;;;4.30;1.90;;;;;;;6.92;100.00;100719.97;4859589;29;20218;-82
2021/11/04 09:03:00;;;;;;;3.75;1.67;;;;;;;6.99;100.00;100712.84;4845341;29;20059;-82
2021/11/04 09:05:25;;;;;;;3.00;1.92;;;;;;;7.04;100.00;100717.91;4846607;29;20521;-82
2021/11/04 09:07:51;;;;;;;2.10;1.85;;;;;;;7.07;100.00;100721.28;4845575;29;20080;-81
2021/11/04 09:10:20;;;;;;;5.07;2.38;;;;;;;7.12;100.00;100728.97;4858678;29;20569;-82
2021/11/04 09:12:46;;;;;;;5.72;2.35;;;;;;;7.18;100.00;100731.41;4828985;29;20356;-82
2021/11/04 09:15:11;;;;;;;5.95;2.90;;;;;;;7.25;100.00;100743.34;4843158;29;20033;-82
2021/11/04 09:17:37;;;;;;;3.38;2.55;;;;;;;7.30;100.00;100735.44;4856498;29;20045;-82
2021/11/04 09:20:03;;;;;;;12.60;3.65;;;;;;;7.35;100.00;100741.34;4831035;29;20113;-82
2021/11/04 09:22:29;;;;;;;3.22;1.67;;;;;;;7.46;100.00;100744.50;4861468;29;20244;-82
2021/11/04 09:24:56;;;;;;;12.73;3.50;;;;;;;7.46;100.00;100741.06;4838833;29;20042;-82
2021/11/04 09:27:21;;;;;;;4.18;1.80;;;;;;;7.46;100.00;100739.28;4841690;29;20091;-82
2021/11/04 09:29:48;;;;;;;6.03;1.60;;;;;;;7.48;100.00;100726.22;4838800;29;20065;-82
2021/11/04 09:32:13;;;;;;;3.83;1.30;;;;;;;7.46;100.00;100726.25;4846947;29;20033;-82
2021/11/04 09:34:39;;;;;;;7.78;1.63;;;;;;;7.43;100.00;100726.34;4849079;29;20048;-83
2021/11/04 09:37:08;;;;;;;10.02;1.83;;;;;;;7.42;100.00;100724.66;4840966;29;20049;-82
2021/11/04 09:39:34;;;;;;;9.68;1.33;;;;;;;7.40;100.00;100722.97;4841954;29;20033;-82
2021/11/04 09:41:59;;;;;;;11.38;1.73;;;;;;;7.40;100.00;100728.19;4844879;29;20089;-87
2021/11/04 09:44:25;;;;;;;5.60;0.90;;;;;;;7.38;100.00;100728.22;4829137;29;20237;-87
2021/11/04 09:46:50;;;;;;;1.75;0.93;;;;;;;7.37;100.00;100731.75;4830104;29;20113;-86
2021/11/04 09:49:16;;;;;;;2.05;1.00;;;;;;;7.36;100.00;100730.03;4862390;29;20074;-87
2021/11/04 09:51:41;;;;;;;4.68;1.08;;;;;;;7.37;100.00;100723.94;4828296;29;20041;-87
2021/11/04 09:54:07;;;;;;;4.43;1.13;;;;;;;7.38;100.00;100737.81;4845819;29;20336;-87
2021/11/04 09:56:33;;;;;;;4.72;1.27;;;;;;;7.39;100.00;100744.72;4849624;29;20033;-86
2021/11/04 09:58:59;;;;;;;1.88;0.80;;;;;;;7.40;100.00;100743.81;4832150;29;20037;-87
2021/11/04 10:01:26;;;;;;;2.47;0.80;;;;;;;7.41;100.00;100745.53;4818822;29;20253;-86
2021/11/04 10:03:53;;;;;;;5.78;1.20;;;;;;;7.42;100.00;100740.28;4835217;29;20066;-87
2021/11/04 10:06:26;;;;;;;4.15;1.27;;;;;;;7.45;100.00;100744.53;4852404;29;20057;-86
2021/11/04 10:08:52;;;;;;;2.38;1.02;;;;;;;7.46;100.00;100738.44;4867217;29;20241;-87
2021/11/04 10:11:18;;;;;;;1.08;0.90;;;;;;;7.47;100.00;100743.59;4850043;29;20037;-87
2021/11/04 10:13:44;;;;;;;1.60;0.93;;;;;;;7.48;100.00;100742.69;4849323;29;20230;-86
2021/11/04 10:16:13;;;;;;;4.43;1.00;;;;;;;7.49;100.00;100741.81;4850064;29;20041;-86
2021/11/04 10:18:40;;;;;;;3.97;1.10;;;;;;;7.50;100.00;100751.31;4856123;29;20053;-86
2021/11/04 10:21:05;;;;;;;4.95;1.13;;;;;;;7.50;100.00;100750.47;4865352;29;20824;-87
2021/11/04 10:23:38;;;;;;;3.45;1.45;;;;;;;7.49;100.00;100752.25;4858235;29;20026;-87
2021/11/04 10:26:09;;;;;;;1.90;1.30;;;;;;;7.48;100.00;100760.94;4848897;29;20080;-87
2021/11/04 10:28:36;;;;;;;6.22;1.30;;;;;;;7.49;100.00;100752.25;4834274;29;20045;-86
2021/11/04 10:31:01;;;;;;;4.82;2.20;;;;;;;7.48;100.00;100758.34;4836064;29;20104;-86
2021/11/04 10:33:31;;;;;;;2.08;1.30;;;;;;;7.47;100.00;100759.22;4836290;29;20037;-86
2021/11/04 10:36:22;;;;;;;4.38;1.63;;;;;;;7.45;100.00;100760.19;4817733;29;20041;-87
2021/11/04 10:38:58;;;;;;;6.25;1.52;;;;;;;7.44;100.00;100761.94;4841732;29;20033;-87
2021/11/04 10:41:24;;;;;;;5.80;1.60;;;;;;;7.44;100.00;100764.53;4861386;29;20300;-86
2021/11/04 10:43:54;;;;;;;1.75;1.63;;;;;;;7.43;100.00;100761.97;4866456;29;20378;-87
2021/11/04 10:46:19;;;;;;;4.93;1.65;;;;;;;7.43;100.00;100759.38;4836079;29;20032;-86
2021/11/04 10:48:55;;;;;;;6.90;1.88;;;;;;;7.42;100.00;100758.53;4838079;29;20045;-87
2021/11/04 10:51:21;;;;;;;2.33;1.63;;;;;;;7.47;100.00;100760.97;4834983;29;20065;-86
2021/11/04 10:53:55;;;;;;;3.83;2.20;;;;;;;7.50;100.00;100764.34;4833298;29;20126;-87
2021/11/04 10:56:21;;;;;;;5.28;1.70;;;;;;;7.59;100.00;100762.38;4835723;29;20060;-87
2021/11/04 10:59:14;;;;;;;5.93;1.98;;;;;;;7.65;100.00;100755.22;4830025;29;20045;-87
2021/11/04 11:01:52;;;;;;;6.95;2.20;;;;;;;7.72;100.00;100749.84;4845892;29;20061;-86
2021/11/04 11:04:22;;;;;;;6.05;2.30;;;;;;;7.77;100.00;100756.63;4831329;29;20077;-87
2021/11/04 11:06:57;;;;;;;2.75;2.15;;;;;;;7.83;100.00;100750.38;4831920;29;20112;-86
2021/11/04 11:09:30;;;;;;;7.90;2.20;;;;;;;7.88;100.00;100751.94;4845794;29;20053;-87
2021/11/04 11:12:00;;;;;;;5.70;2.03;;;;;;;7.95;100.00;100762.16;4852396;29;20493;-87
2021/11/04 11:14:26;;;;;;;3.65;1.95;;;;;;;8.01;100.00;100755.00;4831347;29;20133;-87
2021/11/04 11:16:52;;;;;;;4.78;1.23;;;;;;;8.14;100.00;100760.69;4845898;29;20046;-87
2021/11/04 11:19:22;;;;;;;2.90;1.25;;;;;;;8.25;100.00;100761.19;4829398;29;20061;-86
2021/11/04 11:21:51;;;;;;;10.13;0.75;;;;;;;8.38;100.00;100773.84;4847951;29;20089;-86
2021/11/04 11:24:17;;;;;;;0.93;0.80;;;;;;;8.44;100.00;100768.44;4834311;29;20037;-87
2021/11/04 11:26:43;;;;;;;7.00;0.70;;;;;;;8.50;100.00;100773.47;4825618;29;20029;-87
2021/11/04 11:29:08;;;;;;;4.18;0.73;;;;;;;8.55;100.00;100782.03;4830942;29;20356;-86